Time;durP1;ratioP1;P1;durP2;ratioP2;P2;SDS_P1;SDS_P2;PMS_P1;PMS_P2;Temp;Humidity;BMP_temperature;BMP_pressure;BME280_temperature;BME280_humidity;BME280_pressure;Samples;Min_cycle;Max_cycle;Signal;HPM_P1;HPM_P2
2024/01/16 00:01:25;;;;;;;3.72;2.70;;;-1.60;99.90;;;;;;4898781;28;21097;-85
2024/01/16 00:03:50;;;;;;;2.17;1.95;;;-1.60;99.90;;;;;;4924387;28;20031;-85
2024/01/16 00:06:16;;;;;;;4.28;2.35;;;-1.60;99.90;;;;;;4915800;28;20062;-85
2024/01/16 00:08:48;;;;;;;4.95;2.63;;;-1.60;99.90;;;;;;4904715;28;20041;-83
2024/01/16 00:11:13;;;;;;;4.40;3.15;;;-1.60;99.90;;;;;;4889021;28;20071;-84
2024/01/16 00:13:39;;;;;;;3.10;2.45;;;-1.60;99.90;;;;;;4919008;28;20085;-86
2024/01/16 00:16:05;;;;;;;3.33;2.38;;;-1.60;99.90;;;;;;4923188;28;20035;-84
2024/01/16 00:18:31;;;;;;;4.88;3.20;;;-1.60;99.90;;;;;;4927482;28;20544;-85
2024/01/16 00:20:56;;;;;;;4.57;2.97;;;-1.60;99.90;;;;;;4944915;28;20102;-85
2024/01/16 00:23:22;;;;;;;3.45;2.47;;;-1.60;99.90;;;;;;4964825;28;20419;-86
2024/01/16 00:25:47;;;;;;;3.75;2.50;;;-1.60;99.90;;;;;;4932431;28;20023;-86
2024/01/16 00:28:13;;;;;;;4.50;2.53;;;-1.60;99.90;;;;;;4920474;28;20042;-86
2024/01/16 00:30:38;;;;;;;3.67;2.35;;;-1.60;99.90;;;;;;4944424;28;20118;-85
2024/01/16 00:33:04;;;;;;;7.20;3.38;;;-1.70;99.90;;;;;;4941449;28;21409;-86
2024/01/16 00:35:29;;;;;;;4.47;2.50;;;-1.70;99.90;;;;;;4963556;28;20546;-85
2024/01/16 00:37:55;;;;;;;7.90;2.88;;;-1.60;99.90;;;;;;4928624;28;20046;-86
2024/01/16 00:40:20;;;;;;;5.97;3.08;;;-1.70;99.90;;;;;;4907805;28;20081;-85
2024/01/16 00:42:46;;;;;;;3.65;2.35;;;-1.70;99.90;;;;;;4929421;28;20034;-85
2024/01/16 00:45:12;;;;;;;4.45;2.67;;;-1.80;99.90;;;;;;4925332;28;20106;-85
2024/01/16 00:47:47;;;;;;;5.90;2.40;;;-1.80;99.90;;;;;;4944478;28;20061;-84
2024/01/16 00:50:13;;;;;;;5.88;3.00;;;-1.80;99.90;;;;;;4951309;28;20517;-86
2024/01/16 00:52:39;;;;;;;3.80;2.22;;;-1.80;99.90;;;;;;4959730;28;20026;-85
2024/01/16 00:55:05;;;;;;;6.57;2.88;;;-1.80;99.90;;;;;;4924386;28;20039;-86
2024/01/16 00:57:30;;;;;;;6.50;2.63;;;-1.90;99.90;;;;;;4922399;28;20051;-87
2024/01/16 00:59:56;;;;;;;3.70;2.75;;;-1.90;99.90;;;;;;4907584;28;21398;-86
2024/01/16 01:02:22;;;;;;;3.95;2.67;;;-1.90;99.90;;;;;;4943625;28;22230;-85
2024/01/16 01:04:47;;;;;;;4.50;2.95;;;-1.90;99.90;;;;;;4946196;28;20161;-85
2024/01/16 01:07:16;;;;;;;4.53;2.90;;;-1.90;99.90;;;;;;4915445;28;20027;-85
2024/01/16 01:09:42;;;;;;;4.50;3.05;;;-2.00;99.90;;;;;;4911190;28;20414;-85
2024/01/16 01:12:07;;;;;;;6.18;3.25;;;-2.00;99.90;;;;;;4915715;28;20019;-85
2024/01/16 01:14:33;;;;;;;6.22;3.08;;;-2.00;99.90;;;;;;4952851;28;20031;-85
2024/01/16 01:16:59;;;;;;;6.95;3.83;;;-2.00;99.90;;;;;;4940449;28;20113;-85
2024/01/16 01:19:25;;;;;;;5.65;3.20;;;-2.00;99.90;;;;;;4916221;28;20023;-85
2024/01/16 01:21:50;;;;;;;7.10;4.35;;;-2.00;99.90;;;;;;4874269;28;20058;-86
2024/01/16 01:24:16;;;;;;;4.80;3.63;;;-2.00;99.90;;;;;;4924560;28;20038;-86
2024/01/16 01:26:47;;;;;;;4.40;3.05;;;-2.00;99.90;;;;;;4936604;28;20038;-83
2024/01/16 01:29:13;;;;;;;6.05;3.28;;;-2.00;99.90;;;;;;4936156;28;20051;-86
2024/01/16 01:31:38;;;;;;;7.70;3.33;;;-2.00;99.90;;;;;;4932979;28;20137;-86
2024/01/16 01:34:04;;;;;;;5.25;3.25;;;-2.00;99.90;;;;;;4907813;28;20098;-85
2024/01/16 01:36:30;;;;;;;7.43;4.03;;;-2.00;99.90;;;;;;4916472;28;20026;-87
2024/01/16 01:38:55;;;;;;;6.00;3.63;;;-2.00;99.90;;;;;;4925855;28;20089;-85
2024/01/16 01:41:21;;;;;;;7.80;3.80;;;-2.00;99.90;;;;;;4927767;28;20026;-86
2024/01/16 01:43:47;;;;;;;7.63;3.42;;;-2.10;99.90;;;;;;4939425;28;20026;-86
2024/01/16 01:46:17;;;;;;;8.38;3.78;;;-2.10;99.90;;;;;;4899900;28;20037;-85
2024/01/16 01:48:43;;;;;;;5.55;3.75;;;-2.00;99.90;;;;;;4902279;28;20031;-87
2024/01/16 01:51:11;;;;;;;6.38;4.07;;;-2.10;99.90;;;;;;4920866;28;20023;-86
2024/01/16 01:53:49;;;;;;;12.15;4.95;;;-2.00;99.90;;;;;;4922434;28;20476;-83
2024/01/16 01:56:17;;;;;;;5.57;3.88;;;-2.00;99.90;;;;;;4958597;28;20098;-85
2024/01/16 01:58:45;;;;;;;5.68;4.38;;;-2.00;99.90;;;;;;4962605;28;20034;-86
2024/01/16 02:01:11;;;;;;;7.07;4.10;;;-2.00;99.90;;;;;;4915492;28;20028;-86
2024/01/16 02:03:44;;;;;;;4.85;3.75;;;-1.90;99.90;;;;;;4924159;28;20065;-85
2024/01/16 02:06:16;;;;;;;6.03;4.15;;;-1.90;99.90;;;;;;4923911;28;20114;-87
2024/01/16 02:08:47;;;;;;;5.15;3.30;;;-1.90;99.90;;;;;;4942518;28;20518;-83
2024/01/16 02:11:13;;;;;;;8.48;4.57;;;-1.90;99.90;;;;;;4944416;28;20248;-85
2024/01/16 02:13:39;;;;;;;5.60;3.78;;;-1.90;99.90;;;;;;4948443;28;20026;-85
2024/01/16 02:16:05;;;;;;;7.75;4.28;;;-1.90;99.90;;;;;;4922766;28;20496;-85
2024/01/16 02:18:31;;;;;;;4.72;3.83;;;-1.90;99.90;;;;;;4902641;28;20018;-86
2024/01/16 02:21:06;;;;;;;4.32;3.92;;;-1.90;99.90;;;;;;4889465;28;21134;-85
2024/01/16 02:23:33;;;;;;;4.68;3.90;;;-1.90;99.90;;;;;;4928279;28;20606;-85
2024/01/16 02:25:59;;;;;;;6.60;3.80;;;-1.90;99.90;;;;;;4967234;28;20172;-85
2024/01/16 02:28:24;;;;;;;5.63;3.55;;;-1.90;99.90;;;;;;4925402;28;20042;-86
2024/01/16 02:30:50;;;;;;;5.47;4.13;;;-2.00;99.90;;;;;;4922284;28;20066;-86
2024/01/16 02:33:16;;;;;;;5.32;3.22;;;-2.00;99.90;;;;;;4927034;28;20026;-85
2024/01/16 02:35:41;;;;;;;5.32;3.83;;;-2.00;99.90;;;;;;4916454;28;20031;-84
2024/01/16 02:38:07;;;;;;;5.22;3.65;;;-2.00;99.90;;;;;;4943210;28;20042;-82
2024/01/16 02:40:33;;;;;;;5.32;3.78;;;-2.00;99.90;;;;;;4957026;28;20033;-85
2024/01/16 02:42:58;;;;;;;6.97;4.10;;;-2.10;99.90;;;;;;4918528;28;21525;-85
2024/01/16 02:45:25;;;;;;;7.65;3.78;;;-2.10;99.90;;;;;;4925563;28;20019;-86
2024/01/16 02:47:51;;;;;;;5.72;3.88;;;-2.10;99.90;;;;;;4932187;28;20045;-85
2024/01/16 02:50:16;;;;;;;6.57;4.40;;;-2.10;99.90;;;;;;4930317;28;20035;-85
2024/01/16 02:52:42;;;;;;;4.72;3.75;;;-2.10;99.90;;;;;;4967460;28;21555;-85
2024/01/16 02:55:08;;;;;;;4.82;3.67;;;-2.10;99.90;;;;;;4899968;28;20041;-85
2024/01/16 02:57:33;;;;;;;4.47;3.58;;;-2.10;99.90;;;;;;4917633;28;20066;-85
2024/01/16 02:59:59;;;;;;;4.93;3.40;;;-2.10;99.90;;;;;;4889108;28;20022;-86
2024/01/16 03:02:24;;;;;;;4.78;3.35;;;-2.10;99.90;;;;;;4906043;28;20041;-85
2024/01/16 03:04:50;;;;;;;4.93;3.65;;;-2.10;99.90;;;;;;4946097;28;20431;-85
2024/01/16 03:07:16;;;;;;;6.80;4.20;;;-2.10;99.90;;;;;;4909304;28;20067;-85
2024/01/16 03:09:41;;;;;;;6.07;3.45;;;-2.20;99.90;;;;;;4899061;28;20066;-83
2024/01/16 03:12:07;;;;;;;5.30;3.65;;;-2.20;99.90;;;;;;4923388;28;20027;-86
2024/01/16 03:14:34;;;;;;;6.15;4.45;;;-2.20;99.90;;;;;;4893355;28;20026;-84
2024/01/16 03:17:03;;;;;;;5.97;4.07;;;-2.20;99.90;;;;;;4946034;28;20029;-86
2024/01/16 03:19:29;;;;;;;8.23;5.05;;;-2.20;99.90;;;;;;4902655;28;20066;-86
2024/01/16 03:21:55;;;;;;;8.15;5.70;;;-2.20;99.90;;;;;;4907999;28;20057;-85
2024/01/16 03:24:20;;;;;;;5.47;4.80;;;-2.20;99.90;;;;;;4913588;28;20015;-86
2024/01/16 03:26:46;;;;;;;8.88;5.65;;;-2.10;99.90;;;;;;4908910;28;20045;-85
2024/01/16 03:29:11;;;;;;;10.68;6.35;;;-2.10;99.90;;;;;;4911036;28;20463;-84
2024/01/16 03:31:37;;;;;;;13.07;7.07;;;-2.00;99.90;;;;;;4939247;28;20047;-86
2024/01/16 03:34:03;;;;;;;9.32;6.72;;;-2.00;99.90;;;;;;4922782;28;21595;-85
2024/01/16 03:36:28;;;;;;;9.93;7.65;;;-2.00;99.90;;;;;;4955574;28;20082;-84
2024/01/16 03:38:54;;;;;;;8.82;6.43;;;-2.00;99.90;;;;;;4901084;28;20124;-86
2024/01/16 03:41:19;;;;;;;11.55;6.97;;;-2.00;99.90;;;;;;4927801;28;20019;-86
2024/01/16 03:43:45;;;;;;;8.75;5.95;;;-2.00;99.90;;;;;;4958454;28;20490;-86
2024/01/16 03:46:11;;;;;;;11.23;6.25;;;-2.00;99.90;;;;;;4923764;28;20498;-86
2024/01/16 03:48:37;;;;;;;8.63;6.00;;;-1.90;99.90;;;;;;4943778;28;20034;-86
2024/01/16 03:51:03;;;;;;;9.10;5.90;;;-2.00;99.90;;;;;;4907060;28;20273;-86
2024/01/16 03:53:28;;;;;;;8.60;5.90;;;-2.00;99.90;;;;;;4899530;28;21629;-86
2024/01/16 03:55:54;;;;;;;7.13;5.45;;;-2.00;99.90;;;;;;4956758;28;20062;-86
2024/01/16 03:58:19;;;;;;;7.50;5.50;;;-2.00;99.90;;;;;;4896401;28;20022;-86
2024/01/16 04:00:46;;;;;;;9.70;5.35;;;-2.00;99.90;;;;;;4906659;28;20125;-83
2024/01/16 04:03:13;;;;;;;8.25;5.57;;;-2.00;99.90;;;;;;4939095;28;20027;-85
2024/01/16 04:05:38;;;;;;;8.80;5.40;;;-1.90;99.90;;;;;;4902937;28;20161;-85
2024/01/16 04:08:04;;;;;;;7.47;5.35;;;-2.00;99.90;;;;;;4904570;28;20121;-83
2024/01/16 04:10:30;;;;;;;10.00;5.35;;;-2.00;99.90;;;;;;4889740;28;20026;-86
2024/01/16 04:12:55;;;;;;;11.70;5.10;;;-2.10;99.90;;;;;;4878847;28;20480;-85
2024/01/16 04:15:21;;;;;;;6.82;5.20;;;-2.10;99.90;;;;;;4927702;28;20075;-85
2024/01/16 04:17:48;;;;;;;9.73;6.32;;;-2.10;99.90;;;;;;4882900;28;20038;-85
2024/01/16 04:20:13;;;;;;;8.95;6.38;;;-2.20;99.90;;;;;;4895863;28;20019;-85
2024/01/16 04:22:39;;;;;;;12.13;6.97;;;-2.20;99.90;;;;;;4926629;28;20030;-85
2024/01/16 04:25:05;;;;;;;9.38;6.38;;;-2.20;99.90;;;;;;4891056;28;21744;-85
2024/01/16 04:27:31;;;;;;;10.30;6.40;;;-2.20;99.90;;;;;;4918942;28;20031;-85
2024/01/16 04:29:57;;;;;;;8.90;6.32;;;-2.20;99.90;;;;;;4884033;28;20034;-85
2024/01/16 04:32:23;;;;;;;8.13;6.53;;;-2.20;99.90;;;;;;4854235;28;21529;-85
2024/01/16 04:34:48;;;;;;;8.98;6.72;;;-2.10;99.90;;;;;;4930176;28;20053;-85
2024/01/16 04:37:14;;;;;;;10.95;6.97;;;-2.10;99.90;;;;;;4900786;28;20033;-87
2024/01/16 04:39:39;;;;;;;9.45;6.38;;;-2.10;99.90;;;;;;4909178;28;20019;-82
2024/01/16 04:42:05;;;;;;;9.88;6.60;;;-2.10;99.90;;;;;;4915665;28;20466;-85
2024/01/16 04:44:30;;;;;;;12.57;6.35;;;-2.10;99.90;;;;;;4892057;28;20913;-86
2024/01/16 04:46:56;;;;;;;8.27;5.57;;;-2.10;99.90;;;;;;4924002;28;20027;-86
2024/01/16 04:49:21;;;;;;;7.63;5.60;;;-2.10;99.90;;;;;;4892371;28;20030;-82
2024/01/16 04:51:47;;;;;;;11.10;6.80;;;-2.10;99.90;;;;;;4875917;28;20031;-85
2024/01/16 04:54:12;;;;;;;10.45;6.15;;;-2.10;99.90;;;;;;4922608;28;20114;-85
2024/01/16 04:56:38;;;;;;;9.80;5.95;;;-2.10;99.90;;;;;;4871018;28;20046;-86
2024/01/16 04:59:03;;;;;;;9.90;6.30;;;-2.00;99.90;;;;;;4901358;28;20037;-82
2024/01/16 05:01:29;;;;;;;8.40;6.28;;;-2.00;99.90;;;;;;4874217;28;20027;-86
2024/01/16 05:03:55;;;;;;;9.13;5.55;;;-2.00;99.90;;;;;;4855362;28;21108;-86
2024/01/16 05:06:21;;;;;;;8.63;5.30;;;-2.00;99.90;;;;;;4929785;28;20491;-85
2024/01/16 05:08:47;;;;;;;8.38;4.70;;;-2.00;99.90;;;;;;4864413;28;20054;-85
2024/01/16 05:11:13;;;;;;;9.23;6.15;;;-2.00;99.90;;;;;;4863244;28;20026;-82
2024/01/16 05:13:38;;;;;;;7.50;5.32;;;-2.10;99.90;;;;;;4896405;28;20027;-85
2024/01/16 05:16:05;;;;;;;7.03;5.53;;;-2.10;99.90;;;;;;4862132;28;21952;-85
2024/01/16 05:18:32;;;;;;;5.95;4.93;;;-2.10;99.90;;;;;;4912569;28;20026;-85
2024/01/16 05:20:58;;;;;;;8.00;5.43;;;-2.10;99.90;;;;;;4855718;28;20041;-85
2024/01/16 05:23:24;;;;;;;6.63;5.25;;;-2.10;99.90;;;;;;4857713;28;21894;-84
2024/01/16 05:25:49;;;;;;;10.60;5.53;;;-2.10;99.90;;;;;;4919843;28;20125;-85
2024/01/16 05:28:15;;;;;;;9.05;5.93;;;-2.10;99.90;;;;;;4867070;28;20026;-85
2024/01/16 05:30:41;;;;;;;8.27;5.43;;;-2.00;99.90;;;;;;4890758;28;20022;-83
2024/01/16 05:33:07;;;;;;;8.00;5.38;;;-2.00;99.90;;;;;;4865210;28;20411;-85
2024/01/16 05:35:32;;;;;;;6.90;5.25;;;-2.00;99.90;;;;;;4852842;28;22050;-85
2024/01/16 05:37:59;;;;;;;10.13;4.88;;;-2.00;99.90;;;;;;4919471;28;20826;-85
2024/01/16 05:40:25;;;;;;;7.32;5.10;;;-2.00;99.90;;;;;;4839127;28;20579;-84
2024/01/16 05:42:50;;;;;;;5.88;4.18;;;-1.90;99.90;;;;;;4850301;28;20027;-84
2024/01/16 05:45:16;;;;;;;8.60;4.25;;;-1.90;99.90;;;;;;4916418;28;20054;-84
2024/01/16 05:47:42;;;;;;;7.88;4.90;;;-1.90;99.90;;;;;;4867793;28;20041;-85
2024/01/16 05:50:08;;;;;;;6.55;4.38;;;-1.90;99.90;;;;;;4904879;28;20049;-82
2024/01/16 05:52:34;;;;;;;6.95;5.03;;;-1.90;99.90;;;;;;4916366;28;20031;-86
2024/01/16 05:55:00;;;;;;;9.95;5.05;;;-1.80;99.90;;;;;;4879529;28;21414;-86
2024/01/16 05:57:26;;;;;;;7.75;4.93;;;-1.80;99.90;;;;;;4877894;28;20086;-85
2024/01/16 05:59:52;;;;;;;8.80;5.35;;;-1.80;99.90;;;;;;4859657;28;20026;-85
2024/01/16 06:02:18;;;;;;;9.75;5.55;;;-1.80;99.90;;;;;;4843437;28;20019;-82
2024/01/16 06:04:43;;;;;;;8.80;5.00;;;-1.80;99.90;;;;;;4930445;28;20375;-85
2024/01/16 06:07:09;;;;;;;8.23;4.78;;;-1.80;99.90;;;;;;4877366;28;20031;-86
2024/01/16 06:09:41;;;;;;;8.90;4.38;;;-1.70;99.90;;;;;;4913540;28;20023;-85
2024/01/16 06:12:09;;;;;;;6.95;4.93;;;-1.70;99.90;;;;;;4870955;28;20042;-85
2024/01/16 06:14:35;;;;;;;5.25;3.95;;;-1.70;99.90;;;;;;4862887;28;20049;-85
2024/01/16 06:17:03;;;;;;;8.02;4.20;;;-1.70;99.90;;;;;;4931075;28;20087;-85
2024/01/16 06:19:28;;;;;;;7.05;4.47;;;-1.70;99.90;;;;;;4872331;28;20714;-85
2024/01/16 06:21:54;;;;;;;7.10;4.03;;;-1.70;99.90;;;;;;4846961;28;20019;-85
2024/01/16 06:24:19;;;;;;;11.30;5.68;;;-1.70;99.90;;;;;;4920625;28;20026;-86
2024/01/16 06:26:45;;;;;;;7.93;4.95;;;-1.70;99.90;;;;;;4838723;28;20033;-84
2024/01/16 06:29:10;;;;;;;8.50;5.70;;;-1.60;99.90;;;;;;4867050;28;20134;-83
2024/01/16 06:31:36;;;;;;;10.23;6.38;;;-1.60;99.90;;;;;;4897831;28;20762;-85
2024/01/16 06:34:01;;;;;;;16.73;7.75;;;-1.60;99.90;;;;;;4857687;28;21531;-85
2024/01/16 06:36:27;;;;;;;14.98;7.53;;;-1.60;99.90;;;;;;4885845;28;20573;-84
2024/01/16 06:38:52;;;;;;;12.63;7.78;;;-1.60;99.90;;;;;;4851806;28;20031;-85
2024/01/16 06:41:18;;;;;;;11.57;5.18;;;-1.50;99.90;;;;;;4874026;28;20121;-84
2024/01/16 06:43:43;;;;;;;7.93;4.63;;;-1.50;99.90;;;;;;4925315;28;20109;-85
2024/01/16 06:46:09;;;;;;;5.32;4.18;;;-1.50;99.90;;;;;;4867877;28;20050;-85
2024/01/16 06:48:37;;;;;;;7.43;4.97;;;-1.50;99.90;;;;;;4913498;28;20499;-84
2024/01/16 06:51:02;;;;;;;6.93;3.83;;;-1.50;99.90;;;;;;4876273;28;20395;-82
2024/01/16 06:53:28;;;;;;;6.50;4.00;;;-1.50;99.90;;;;;;4871897;28;21620;-85
2024/01/16 06:55:53;;;;;;;5.15;4.25;;;-1.40;99.90;;;;;;4942977;28;20116;-85
2024/01/16 06:58:19;;;;;;;4.90;3.55;;;-1.40;99.90;;;;;;4852228;28;20031;-85
2024/01/16 07:00:46;;;;;;;5.55;3.75;;;-1.40;99.90;;;;;;4866349;28;20022;-86
2024/01/16 07:03:12;;;;;;;4.43;3.10;;;-1.40;99.90;;;;;;4896502;28;20451;-85
2024/01/16 07:05:38;;;;;;;5.88;3.35;;;-1.30;99.90;;;;;;4864441;28;20077;-85
2024/01/16 07:08:04;;;;;;;6.38;3.78;;;-1.40;99.90;;;;;;4914069;28;20077;-86
2024/01/16 07:10:29;;;;;;;5.45;3.20;;;-1.40;99.90;;;;;;4933701;28;20113;-85
2024/01/16 07:12:56;;;;;;;5.55;3.33;;;-1.40;99.90;;;;;;4937355;28;20027;-85
2024/01/16 07:15:21;;;;;;;4.60;3.20;;;-1.30;99.90;;;;;;4948556;28;20602;-86
2024/01/16 07:17:47;;;;;;;8.95;3.55;;;-1.30;99.90;;;;;;4940592;28;20146;-86
2024/01/16 07:20:13;;;;;;;6.72;3.28;;;-1.40;99.90;;;;;;4969918;28;20011;-86
2024/01/16 07:22:41;;;;;;;5.32;3.40;;;-1.30;99.90;;;;;;4972000;28;20058;-87
2024/01/16 07:25:07;;;;;;;5.55;3.33;;;-1.30;99.90;;;;;;4958412;28;20060;-87
2024/01/16 07:27:34;;;;;;;7.00;3.75;;;-1.30;99.90;;;;;;4978062;28;20081;-86
2024/01/16 07:29:59;;;;;;;5.28;3.17;;;-1.20;99.90;;;;;;4959841;28;20406;-86
2024/01/16 07:32:25;;;;;;;3.40;2.90;;;-1.20;99.90;;;;;;4961443;28;20034;-87
2024/01/16 07:34:52;;;;;;;6.15;4.00;;;-1.20;99.90;;;;;;4952996;28;20062;-86
2024/01/16 07:37:18;;;;;;;4.28;2.58;;;-1.20;99.90;;;;;;4961024;28;20055;-85
2024/01/16 07:39:43;;;;;;;4.00;2.97;;;-1.20;99.90;;;;;;4961112;28;20027;-84
2024/01/16 07:42:09;;;;;;;4.72;3.20;;;-1.20;99.90;;;;;;4963335;28;20118;-85
2024/01/16 07:44:34;;;;;;;3.55;2.70;;;-1.20;99.90;;;;;;4965793;28;20022;-87
2024/01/16 07:47:00;;;;;;;5.10;2.70;;;-1.20;99.90;;;;;;4956600;28;20053;-85
2024/01/16 07:49:26;;;;;;;4.03;2.85;;;-1.20;99.90;;;;;;4948961;28;20027;-85
2024/01/16 07:51:51;;;;;;;3.80;2.28;;;-1.20;99.90;;;;;;4954246;28;20601;-85
2024/01/16 07:54:17;;;;;;;7.55;2.92;;;-1.20;99.90;;;;;;4956497;28;20054;-86
2024/01/16 07:56:43;;;;;;;4.35;2.60;;;-1.20;99.90;;;;;;4952250;28;20042;-85
2024/01/16 07:59:08;;;;;;;5.57;2.88;;;-1.20;99.90;;;;;;4943168;28;20038;-85
2024/01/16 08:01:34;;;;;;;4.82;3.28;;;-1.20;99.90;;;;;;4954744;28;20026;-84
2024/01/16 08:03:59;;;;;;;4.25;2.70;;;-1.20;99.90;;;;;;4950958;28;20436;-84
2024/01/16 08:06:26;;;;;;;6.25;3.53;;;-1.20;99.90;;;;;;4950871;28;20042;-85
2024/01/16 08:08:51;;;;;;;4.85;2.20;;;-1.10;99.90;;;;;;4958437;28;20426;-85
2024/01/16 08:11:18;;;;;;;3.25;2.40;;;-1.10;99.90;;;;;;4955277;28;20039;-85
2024/01/16 08:13:44;;;;;;;3.72;2.47;;;-1.10;99.90;;;;;;4950820;28;20625;-84
2024/01/16 08:16:09;;;;;;;6.82;2.63;;;-1.10;99.90;;;;;;4960287;28;20042;-85
2024/01/16 08:18:35;;;;;;;4.03;2.05;;;-1.10;99.90;;;;;;4968598;28;20038;-86
2024/01/16 08:21:00;;;;;;;5.82;1.85;;;-1.10;99.90;;;;;;4961118;28;20090;-86
2024/01/16 08:23:26;;;;;;;3.70;1.73;;;-1.00;99.90;;;;;;4968768;28;20054;-87
2024/01/16 08:25:51;;;;;;;4.13;2.17;;;-1.00;99.90;;;;;;4947022;28;20055;-87
2024/01/16 08:28:20;;;;;;;3.13;2.15;;;-1.00;99.90;;;;;;4959994;28;20034;-86
2024/01/16 08:30:46;;;;;;;5.55;2.03;;;-0.90;99.90;;;;;;4950849;28;20030;-83
2024/01/16 08:33:12;;;;;;;2.50;1.75;;;-0.90;99.90;;;;;;4969433;28;20498;-86
2024/01/16 08:35:38;;;;;;;10.45;2.88;;;-0.90;99.90;;;;;;4963471;28;20034;-85
2024/01/16 08:38:04;;;;;;;4.65;1.70;;;-0.90;99.90;;;;;;4957631;28;20530;-87
2024/01/16 08:40:30;;;;;;;7.05;2.20;;;-0.80;99.90;;;;;;4957976;28;20038;-86
2024/01/16 08:42:55;;;;;;;4.05;1.55;;;-0.80;99.90;;;;;;4954674;28;20026;-86
2024/01/16 08:45:21;;;;;;;4.88;2.03;;;-0.80;99.90;;;;;;4972103;28;20023;-86
2024/01/16 08:47:47;;;;;;;3.88;2.25;;;-0.80;99.90;;;;;;4966360;28;20454;-85
2024/01/16 08:50:14;;;;;;;1.95;1.80;;;-0.80;99.90;;;;;;4958800;28;20063;-85
2024/01/16 08:52:39;;;;;;;2.65;2.05;;;-0.80;99.90;;;;;;4953939;28;20169;-86
2024/01/16 08:55:05;;;;;;;2.40;1.80;;;-0.70;99.90;;;;;;4959785;28;20388;-87
2024/01/16 08:57:31;;;;;;;5.13;2.13;;;-0.70;99.90;;;;;;4982263;28;20117;-87
2024/01/16 08:59:57;;;;;;;2.85;2.17;;;-0.70;99.90;;;;;;4970544;28;20031;-87
2024/01/16 09:02:24;;;;;;;3.80;1.70;;;-0.70;99.90;;;;;;4969614;28;20053;-84
2024/01/16 09:04:50;;;;;;;2.60;1.73;;;-0.70;99.90;;;;;;4970278;28;20051;-86
2024/01/16 09:07:16;;;;;;;2.90;2.03;;;-0.60;99.90;;;;;;4969105;28;20041;-86
2024/01/16 09:09:42;;;;;;;2.53;2.15;;;-0.60;99.90;;;;;;4961263;28;20035;-85
2024/01/16 09:12:09;;;;;;;9.23;2.63;;;-0.60;99.90;;;;;;4967270;28;20394;-86
2024/01/16 09:14:34;;;;;;;5.85;2.00;;;-0.60;99.90;;;;;;4976615;28;21302;-86
2024/01/16 09:17:00;;;;;;;3.83;2.05;;;-0.60;99.90;;;;;;4965982;28;20034;-84
2024/01/16 09:19:25;;;;;;;4.55;1.75;;;-0.60;99.90;;;;;;4960847;28;20067;-85
2024/01/16 09:21:51;;;;;;;3.10;1.90;;;-0.60;99.90;;;;;;4957971;28;20034;-85
2024/01/16 09:24:18;;;;;;;5.35;2.35;;;-0.60;99.90;;;;;;4963651;28;20033;-83
2024/01/16 09:26:44;;;;;;;5.00;1.80;;;-0.60;99.90;;;;;;4974250;28;20026;-84
2024/01/16 09:29:10;;;;;;;7.80;2.20;;;-0.60;99.90;;;;;;4965693;28;20018;-85
2024/01/16 09:31:35;;;;;;;6.28;2.40;;;-0.60;99.90;;;;;;4965356;28;20027;-85
2024/01/16 09:34:03;;;;;;;4.18;1.88;;;-0.60;99.90;;;;;;4959996;28;20030;-85
2024/01/16 09:36:29;;;;;;;5.75;1.88;;;-0.50;99.90;;;;;;4961214;28;20270;-84
2024/01/16 09:38:54;;;;;;;4.90;2.47;;;-0.50;99.90;;;;;;4971616;28;20121;-85
2024/01/16 09:41:20;;;;;;;1.65;1.55;;;-0.50;99.90;;;;;;4960174;28;20406;-85
2024/01/16 09:43:47;;;;;;;5.82;2.05;;;-0.50;99.90;;;;;;4967304;28;20027;-85
2024/01/16 09:46:15;;;;;;;2.20;1.70;;;-0.40;99.90;;;;;;4978680;28;20054;-86
2024/01/16 09:48:44;;;;;;;4.55;2.10;;;-0.40;99.90;;;;;;4970640;28;20038;-85
2024/01/16 09:51:14;;;;;;;5.68;2.15;;;-0.40;99.90;;;;;;4967202;28;20062;-84
2024/01/16 09:53:41;;;;;;;4.85;2.10;;;-0.30;99.90;;;;;;4986539;28;20026;-85
2024/01/16 09:56:15;;;;;;;4.63;2.03;;;-0.30;99.90;;;;;;4961454;28;20292;-85
2024/01/16 09:58:42;;;;;;;4.30;2.10;;;-0.20;99.90;;;;;;4974064;28;20142;-83
2024/01/16 10:01:09;;;;;;;7.00;2.17;;;-0.20;99.90;;;;;;4964651;28;20595;-84
2024/01/16 10:03:35;;;;;;;4.95;1.95;;;-0.10;99.90;;;;;;4964964;28;20694;-85
2024/01/16 10:06:05;;;;;;;9.55;2.60;;;-0.10;99.90;;;;;;4985613;28;20030;-86
2024/01/16 10:08:31;;;;;;;2.38;1.80;;;-0.10;99.90;;;;;;4975761;28;20118;-86
2024/01/16 10:10:58;;;;;;;8.75;1.88;;;-0.10;99.90;;;;;;4962574;28;20081;-88
2024/01/16 10:13:24;;;;;;;6.65;2.00;;;-0.10;99.90;;;;;;4968222;28;20022;-86
2024/01/16 10:15:55;;;;;;;2.22;1.58;;;-0.10;99.90;;;;;;4969750;28;20169;-84
2024/01/16 10:18:32;;;;;;;4.25;1.80;;;-0.10;99.90;;;;;;4966538;28;20023;-86
2024/01/16 10:20:57;;;;;;;6.40;1.85;;;-0.10;99.90;;;;;;4971363;28;20034;-87
2024/01/16 10:23:24;;;;;;;2.60;1.48;;;-0.10;99.90;;;;;;4975745;28;20024;-86
2024/01/16 10:26:09;;;;;;;5.80;1.73;;;-0.10;99.90;;;;;;4961786;28;20423;-86
2024/01/16 10:28:36;;;;;;;3.38;1.98;;;-0.10;99.90;;;;;;4971818;28;20023;-86
2024/01/16 10:31:06;;;;;;;3.95;1.77;;;-0.10;99.90;;;;;;4962800;28;20187;-86
2024/01/16 10:33:32;;;;;;;7.00;1.70;;;-0.10;99.90;;;;;;4957165;28;20030;-86
2024/01/16 10:36:16;;;;;;;4.75;2.58;;;-0.10;99.90;;;;;;4970007;28;20116;-86
2024/01/16 10:38:43;;;;;;;3.17;1.50;;;-0.10;99.90;;;;;;4985164;28;20054;-85
2024/01/16 10:41:09;;;;;;;6.32;1.60;;;-0.10;99.90;;;;;;4960398;28;20648;-86
2024/01/16 10:43:35;;;;;;;11.18;2.65;;;0.00;99.90;;;;;;4965673;28;20023;-87
2024/01/16 10:46:27;;;;;;;3.20;1.45;;;-0.10;99.90;;;;;;4965165;28;20090;-86
2024/01/16 10:49:02;;;;;;;1.90;1.73;;;0.00;99.90;;;;;;4955228;28;20094;-85
2024/01/16 10:51:29;;;;;;;8.70;2.00;;;0.00;99.90;;;;;;4961716;28;20041;-86
2024/01/16 10:53:59;;;;;;;3.28;1.70;;;0.00;99.90;;;;;;4968145;28;20027;-85
2024/01/16 10:56:27;;;;;;;4.07;2.00;;;0.10;99.90;;;;;;4955580;28;20034;-85
2024/01/16 10:59:19;;;;;;;3.80;1.52;;;0.10;99.90;;;;;;4955515;28;20030;-85
2024/01/16 11:01:51;;;;;;;5.05;1.60;;;0.10;99.90;;;;;;4948195;28;20623;-85
2024/01/16 11:04:19;;;;;;;5.70;2.00;;;0.00;99.90;;;;;;4962891;28;20030;-85
2024/01/16 11:06:46;;;;;;;1.40;1.20;;;0.00;99.90;;;;;;4953080;28;20073;-85
2024/01/16 11:09:16;;;;;;;3.22;1.40;;;0.00;99.90;;;;;;4953991;28;20037;-84
2024/01/16 11:11:44;;;;;;;5.45;2.08;;;0.10;99.90;;;;;;4962748;28;20030;-85
2024/01/16 11:14:11;;;;;;;7.35;1.73;;;0.10;99.90;;;;;;4959425;28;20030;-86
2024/01/16 11:16:38;;;;;;;4.38;1.67;;;0.10;99.90;;;;;;4962560;28;20031;-86
2024/01/16 11:19:07;;;;;;;2.47;1.42;;;0.10;99.90;;;;;;4955685;28;20507;-85
2024/01/16 11:21:34;;;;;;;2.50;1.48;;;0.20;99.90;;;;;;4950692;28;20084;-86
2024/01/16 11:23:59;;;;;;;4.57;1.70;;;0.20;99.90;;;;;;4973511;28;20031;-84
2024/01/16 11:26:32;;;;;;;2.50;1.88;;;0.20;99.90;;;;;;4947679;28;20113;-85
2024/01/16 11:28:59;;;;;;;1.98;1.50;;;0.30;99.90;;;;;;4951209;28;20035;-85
2024/01/16 11:31:32;;;;;;;3.03;1.67;;;0.30;99.90;;;;;;4953717;28;20031;-85
2024/01/16 11:34:01;;;;;;;4.30;1.42;;;0.30;99.90;;;;;;4947061;28;20031;-85
2024/01/16 11:36:52;;;;;;;6.65;1.95;;;0.30;99.90;;;;;;4958513;28;21487;-85
2024/01/16 11:39:22;;;;;;;4.63;1.77;;;0.40;99.90;;;;;;4940525;28;20026;-84
2024/01/16 11:41:58;;;;;;;6.70;1.80;;;0.40;99.90;;;;;;4969223;28;20038;-87
2024/01/16 11:44:45;;;;;;;2.85;1.55;;;0.50;99.90;;;;;;4952990;28;20053;-85
2024/01/16 11:47:16;;;;;;;4.88;1.75;;;0.60;99.90;;;;;;4954796;28;20087;-85
2024/01/16 11:49:42;;;;;;;5.07;1.88;;;0.60;99.90;;;;;;4954908;28;20046;-85
2024/01/16 11:52:07;;;;;;;6.55;2.53;;;0.70;99.90;;;;;;4956969;28;20031;-86
2024/01/16 11:54:34;;;;;;;4.85;1.60;;;0.70;99.90;;;;;;4951849;28;22378;-87
2024/01/16 11:57:11;;;;;;;3.63;1.20;;;0.80;99.90;;;;;;4960625;28;20042;-84
2024/01/16 11:59:55;;;;;;;3.55;1.58;;;0.80;99.90;;;;;;4955970;28;20102;-86
2024/01/16 12:02:27;;;;;;;2.75;1.38;;;0.80;99.90;;;;;;4951166;28;20038;-86
2024/01/16 12:04:56;;;;;;;5.53;1.40;;;0.70;99.90;;;;;;4955867;28;20029;-87
2024/01/16 12:07:25;;;;;;;4.18;1.80;;;0.70;99.90;;;;;;4961412;28;20035;-85
2024/01/16 12:09:50;;;;;;;4.97;1.90;;;0.70;99.90;;;;;;4960136;28;20045;-86
2024/01/16 12:12:18;;;;;;;1.85;1.55;;;0.70;99.90;;;;;;4957361;28;20755;-85
2024/01/16 12:14:54;;;;;;;4.93;1.88;;;0.70;99.90;;;;;;4970099;28;20076;-85
2024/01/16 12:17:20;;;;;;;;;;;0.70;99.90;;;;;;4954046;28;20041;-85
2024/01/16 12:19:46;;;;;;;4.73;1.30;;;0.70;99.90;;;;;;4950737;28;19929;-84
2024/01/16 12:22:16;;;;;;;4.25;1.40;;;0.70;99.90;;;;;;4963898;28;20071;-86
2024/01/16 12:24:42;;;;;;;3.30;1.45;;;0.70;99.90;;;;;;4959572;28;20050;-86
2024/01/16 12:27:08;;;;;;;5.28;1.50;;;0.70;99.90;;;;;;4967120;28;20031;-87
2024/01/16 12:29:34;;;;;;;4.90;2.03;;;0.70;99.90;;;;;;4958469;28;20036;-84
2024/01/16 12:32:09;;;;;;;2.22;1.58;;;0.70;99.90;;;;;;4946519;28;21506;-86
2024/01/16 12:34:42;;;;;;;5.00;2.38;;;0.70;99.90;;;;;;4958314;28;20033;-85
2024/01/16 12:37:08;;;;;;;5.50;1.70;;;0.70;99.90;;;;;;4963740;28;20023;-85
2024/01/16 12:39:35;;;;;;;3.55;1.67;;;0.70;99.90;;;;;;4951051;28;20125;-85
2024/01/16 12:42:01;;;;;;;3.30;1.52;;;0.70;99.90;;;;;;4957505;28;20026;-86
2024/01/16 12:44:30;;;;;;;2.80;1.60;;;0.70;99.90;;;;;;4949100;28;20031;-86
2024/01/16 12:46:57;;;;;;;4.78;2.28;;;0.70;99.90;;;;;;4953038;28;20054;-85